sensor_id;sensor_type;location;lat;lon;timestamp;pressure;altitude;pressure_sealevel;temperature;humidity
9277;BME280;4676;42.678;23.244;2023-04-29T00:00:07;94136.03;;;6.25;nan
9277;BME280;4676;42.678;23.244;2023-04-29T00:02:35;94131.09;;;6.20;nan
9277;BME280;4676;42.678;23.244;2023-04-29T00:05:02;94137.88;;;6.18;nan
9277;BME280;4676;42.678;23.244;2023-04-29T00:07:29;94141.84;;;6.27;nan
9277;BME280;4676;42.678;23.244;2023-04-29T00:09:56;94140.31;;;6.21;nan
9277;BME280;4676;42.678;23.244;2023-04-29T00:12:25;94142.09;;;6.16;nan
9277;BME280;4676;42.678;23.244;2023-04-29T00:14:52;94137.22;;;6.10;nan
9277;BME280;4676;42.678;23.244;2023-04-29T00:17:19;94142.34;;;6.06;nan
9277;BME280;4676;42.678;23.244;2023-04-29T00:19:45;94145.75;;;6.03;nan
9277;BME280;4676;42.678;23.244;2023-04-29T00:22:12;94149.34;;;5.93;nan
9277;BME280;4676;42.678;23.244;2023-04-29T00:24:39;94147.66;;;5.93;nan
9277;BME280;4676;42.678;23.244;2023-04-29T00:27:06;94140.38;;;5.80;nan
9277;BME280;4676;42.678;23.244;2023-04-29T00:29:34;94147.88;;;5.81;nan
9277;BME280;4676;42.678;23.244;2023-04-29T00:32:01;94147.09;;;5.79;nan
9277;BME280;4676;42.678;23.244;2023-04-29T00:34:27;94147.00;;;5.82;nan
9277;BME280;4676;42.678;23.244;2023-04-29T00:36:54;94151.34;;;5.76;nan
9277;BME280;4676;42.678;23.244;2023-04-29T00:39:21;94145.22;;;5.90;nan
9277;BME280;4676;42.678;23.244;2023-04-29T00:41:47;94152.38;;;6.07;nan
9277;BME280;4676;42.678;23.244;2023-04-29T00:44:14;94145.13;;;5.93;nan
9277;BME280;4676;42.678;23.244;2023-04-29T00:46:42;94141.88;;;5.88;nan
9277;BME280;4676;42.678;23.244;2023-04-29T00:49:10;94142.06;;;5.78;nan
9277;BME280;4676;42.678;23.244;2023-04-29T00:51:39;94135.56;;;5.69;nan
9277;BME280;4676;42.678;23.244;2023-04-29T00:54:07;94134.81;;;5.66;nan
9277;BME280;4676;42.678;23.244;2023-04-29T00:56:34;94138.16;;;5.65;nan
9277;BME280;4676;42.678;23.244;2023-04-29T00:59:02;94124.22;;;5.50;nan
9277;BME280;4676;42.678;23.244;2023-04-29T01:01:29;94126.94;;;5.39;nan
9277;BME280;4676;42.678;23.244;2023-04-29T01:03:57;94111.94;;;5.36;nan
9277;BME280;4676;42.678;23.244;2023-04-29T01:06:29;94092.97;;;5.22;nan
9277;BME280;4676;42.678;23.244;2023-04-29T01:09:14;94112.16;;;5.24;nan
9277;BME280;4676;42.678;23.244;2023-04-29T01:11:50;94104.59;;;5.27;nan
9277;BME280;4676;42.678;23.244;2023-04-29T01:14:19;94103.00;;;5.22;nan
9277;BME280;4676;42.678;23.244;2023-04-29T01:16:50;94100.75;;;5.10;nan
9277;BME280;4676;42.678;23.244;2023-04-29T01:19:40;94102.56;;;5.03;nan
9277;BME280;4676;42.678;23.244;2023-04-29T01:22:09;94105.97;;;4.99;nan
9277;BME280;4676;42.678;23.244;2023-04-29T01:24:38;94104.97;;;5.08;nan
9277;BME280;4676;42.678;23.244;2023-04-29T01:27:13;94098.47;;;4.97;nan
9277;BME280;4676;42.678;23.244;2023-04-29T01:29:50;94099.38;;;4.93;nan
9277;BME280;4676;42.678;23.244;2023-04-29T01:32:24;94105.28;;;4.92;nan
9277;BME280;4676;42.678;23.244;2023-04-29T01:34:59;94101.66;;;5.06;nan
9277;BME280;4676;42.678;23.244;2023-04-29T01:37:32;94100.84;;;5.05;nan
9277;BME280;4676;42.678;23.244;2023-04-29T01:40:10;94099.28;;;4.98;nan
9277;BME280;4676;42.678;23.244;2023-04-29T01:42:43;94103.41;;;5.02;nan
9277;BME280;4676;42.678;23.244;2023-04-29T01:45:14;94093.16;;;5.11;nan
9277;BME280;4676;42.678;23.244;2023-04-29T01:47:41;94096.63;;;5.06;nan
9277;BME280;4676;42.678;23.244;2023-04-29T01:50:09;94102.59;;;5.00;nan
9277;BME280;4676;42.678;23.244;2023-04-29T01:52:36;94098.41;;;5.00;nan
9277;BME280;4676;42.678;23.244;2023-04-29T01:55:05;94093.44;;;4.97;nan
9277;BME280;4676;42.678;23.244;2023-04-29T01:57:32;94089.25;;;4.96;nan
9277;BME280;4676;42.678;23.244;2023-04-29T01:59:59;94096.75;;;4.99;nan
9277;BME280;4676;42.678;23.244;2023-04-29T02:02:26;94094.25;;;4.99;nan
9277;BME280;4676;42.678;23.244;2023-04-29T02:04:53;94099.34;;;4.95;nan
9277;BME280;4676;42.678;23.244;2023-04-29T02:07:20;94106.94;;;4.92;nan
9277;BME280;4676;42.678;23.244;2023-04-29T02:09:47;94091.97;;;4.87;nan
9277;BME280;4676;42.678;23.244;2023-04-29T02:12:15;94114.41;;;4.95;nan
9277;BME280;4676;42.678;23.244;2023-04-29T02:14:42;94112.81;;;4.92;nan
9277;BME280;4676;42.678;23.244;2023-04-29T02:17:09;94105.28;;;4.91;nan
9277;BME280;4676;42.678;23.244;2023-04-29T02:19:35;94100.25;;;4.91;nan
9277;BME280;4676;42.678;23.244;2023-04-29T02:22:02;94098.31;;;5.05;nan
9277;BME280;4676;42.678;23.244;2023-04-29T02:24:29;94097.38;;;5.11;nan
9277;BME280;4676;42.678;23.244;2023-04-29T02:26:56;94088.41;;;4.99;nan
9277;BME280;4676;42.678;23.244;2023-04-29T02:29:24;94095.03;;;5.03;nan
9277;BME280;4676;42.678;23.244;2023-04-29T02:31:54;94100.97;;;4.97;nan
9277;BME280;4676;42.678;23.244;2023-04-29T02:34:20;94105.28;;;4.92;nan
9277;BME280;4676;42.678;23.244;2023-04-29T02:36:48;94097.09;;;4.81;nan
9277;BME280;4676;42.678;23.244;2023-04-29T02:39:15;94098.78;;;4.81;nan
9277;BME280;4676;42.678;23.244;2023-04-29T02:41:42;94095.50;;;4.76;nan
9277;BME280;4676;42.678;23.244;2023-04-29T02:44:09;94090.53;;;4.74;nan
9277;BME280;4676;42.678;23.244;2023-04-29T02:46:37;94098.97;;;4.70;nan
9277;BME280;4676;42.678;23.244;2023-04-29T02:49:05;94100.66;;;4.68;nan
9277;BME280;4676;42.678;23.244;2023-04-29T02:51:32;94101.66;;;4.60;nan
9277;BME280;4676;42.678;23.244;2023-04-29T02:53:59;94105.91;;;4.56;nan
9277;BME280;4676;42.678;23.244;2023-04-29T02:56:25;94105.19;;;4.49;nan
9277;BME280;4676;42.678;23.244;2023-04-29T02:58:52;94125.25;;;4.49;nan
9277;BME280;4676;42.678;23.244;2023-04-29T03:01:19;94118.69;;;4.42;nan
9277;BME280;4676;42.678;23.244;2023-04-29T03:03:47;94115.47;;;4.34;nan
9277;BME280;4676;42.678;23.244;2023-04-29T03:06:14;94115.34;;;4.42;nan
9277;BME280;4676;42.678;23.244;2023-04-29T03:08:41;94117.84;;;4.42;nan
9277;BME280;4676;42.678;23.244;2023-04-29T03:11:07;94120.47;;;4.36;nan
9277;BME280;4676;42.678;23.244;2023-04-29T03:13:34;94118.91;;;4.29;nan
9277;BME280;4676;42.678;23.244;2023-04-29T03:16:01;94125.50;;;4.36;nan
9277;BME280;4676;42.678;23.244;2023-04-29T03:18:28;94118.81;;;4.33;nan
9277;BME280;4676;42.678;23.244;2023-04-29T03:20:56;94118.91;;;4.29;nan
9277;BME280;4676;42.678;23.244;2023-04-29T03:23:23;94120.63;;;4.25;nan
9277;BME280;4676;42.678;23.244;2023-04-29T03:25:50;94133.06;;;4.31;nan
9277;BME280;4676;42.678;23.244;2023-04-29T03:28:20;94145.50;;;4.39;nan
9277;BME280;4676;42.678;23.244;2023-04-29T03:30:46;94145.41;;;4.43;nan
9277;BME280;4676;42.678;23.244;2023-04-29T03:33:13;94145.56;;;4.34;nan
9277;BME280;4676;42.678;23.244;2023-04-29T03:35:40;94138.97;;;4.29;nan
9277;BME280;4676;42.678;23.244;2023-04-29T03:38:08;94150.47;;;4.40;nan
9277;BME280;4676;42.678;23.244;2023-04-29T03:40:34;94153.03;;;4.39;nan
9277;BME280;4676;42.678;23.244;2023-04-29T03:43:01;94144.72;;;4.35;nan
9277;BME280;4676;42.678;23.244;2023-04-29T03:45:28;94146.41;;;4.35;nan
9277;BME280;4676;42.678;23.244;2023-04-29T03:47:55;94135.19;;;4.57;nan
9277;BME280;4676;42.678;23.244;2023-04-29T03:50:22;94139.91;;;4.74;nan
9277;BME280;4676;42.678;23.244;2023-04-29T03:52:50;94138.41;;;4.64;nan
9277;BME280;4676;42.678;23.244;2023-04-29T03:55:18;94140.03;;;4.66;nan
9277;BME280;4676;42.678;23.244;2023-04-29T03:57:45;94144.69;;;4.87;nan
9277;BME280;4676;42.678;23.244;2023-04-29T04:00:12;94149.81;;;4.81;nan
9277;BME280;4676;42.678;23.244;2023-04-29T04:02:39;94146.47;;;4.81;nan
9277;BME280;4676;42.678;23.244;2023-04-29T04:05:06;94148.69;;;4.97;nan
9277;BME280;4676;42.678;23.244;2023-04-29T04:07:34;94147.91;;;4.94;nan
9277;BME280;4676;42.678;23.244;2023-04-29T04:10:01;94152.03;;;4.98;nan
9277;BME280;4676;42.678;23.244;2023-04-29T04:12:29;94150.09;;;5.11;nan
9277;BME280;4676;42.678;23.244;2023-04-29T04:14:56;94149.97;;;5.18;nan
9277;BME280;4676;42.678;23.244;2023-04-29T04:17:23;94155.00;;;5.18;nan
9277;BME280;4676;42.678;23.244;2023-04-29T04:19:50;94150.47;;;5.37;nan
9277;BME280;4676;42.678;23.244;2023-04-29T04:22:16;94153.41;;;5.57;nan
9277;BME280;4676;42.678;23.244;2023-04-29T04:24:43;94143.19;;;5.65;nan
9277;BME280;4676;42.678;23.244;2023-04-29T04:27:10;94139.94;;;5.60;nan
9277;BME280;4676;42.678;23.244;2023-04-29T04:29:39;94139.94;;;5.60;nan
9277;BME280;4676;42.678;23.244;2023-04-29T04:32:05;94139.81;;;5.66;nan
9277;BME280;4676;42.678;23.244;2023-04-29T04:34:32;94138.78;;;5.76;nan
9277;BME280;4676;42.678;23.244;2023-04-29T04:36:59;94145.41;;;5.78;nan
9277;BME280;4676;42.678;23.244;2023-04-29T04:39:25;94152.69;;;5.93;nan
9277;BME280;4676;42.678;23.244;2023-04-29T04:41:52;94152.13;;;6.19;nan
9277;BME280;4676;42.678;23.244;2023-04-29T04:44:19;94132.88;;;6.17;nan
9277;BME280;4676;42.678;23.244;2023-04-29T04:46:47;94154.16;;;6.39;nan
9277;BME280;4676;42.678;23.244;2023-04-29T04:49:14;94147.31;;;6.44;nan
9277;BME280;4676;42.678;23.244;2023-04-29T04:51:42;94149.97;;;6.39;nan
9277;BME280;4676;42.678;23.244;2023-04-29T04:54:10;94154.09;;;6.42;nan
9277;BME280;4676;42.678;23.244;2023-04-29T04:56:37;94152.84;;;6.60;nan
9277;BME280;4676;42.678;23.244;2023-04-29T04:59:03;94146.53;;;6.77;nan
9277;BME280;4676;42.678;23.244;2023-04-29T05:01:30;94147.25;;;6.82;nan
9277;BME280;4676;42.678;23.244;2023-04-29T05:03:58;94140.38;;;6.87;nan
9277;BME280;4676;42.678;23.244;2023-04-29T05:06:26;94143.66;;;6.91;nan
9277;BME280;4676;42.678;23.244;2023-04-29T05:08:53;94085.84;;;6.86;nan
9277;BME280;4676;42.678;23.244;2023-04-29T05:11:20;94135.16;;;7.27;nan
9277;BME280;4676;42.678;23.244;2023-04-29T05:13:48;94131.72;;;6.99;nan
9277;BME280;4676;42.678;23.244;2023-04-29T05:16:14;94125.84;;;6.98;nan
9277;BME280;4676;42.678;23.244;2023-04-29T05:18:42;94129.06;;;7.03;nan
9277;BME280;4676;42.678;23.244;2023-04-29T05:21:11;94129.00;;;7.07;nan
9277;BME280;4676;42.678;23.244;2023-04-29T05:23:38;94117.63;;;7.23;nan
9277;BME280;4676;42.678;23.244;2023-04-29T05:26:05;94118.28;;;7.29;nan
9277;BME280;4676;42.678;23.244;2023-04-29T05:28:31;94111.56;;;7.30;nan
9277;BME280;4676;42.678;23.244;2023-04-29T05:30:58;94118.25;;;7.31;nan
9277;BME280;4676;42.678;23.244;2023-04-29T05:33:25;94122.28;;;7.36;nan
9277;BME280;4676;42.678;23.244;2023-04-29T05:35:51;94123.69;;;7.46;nan
9277;BME280;4676;42.678;23.244;2023-04-29T05:38:19;94119.16;;;7.59;nan
9277;BME280;4676;42.678;23.244;2023-04-29T05:40:46;94106.63;;;7.56;nan
9277;BME280;4676;42.678;23.244;2023-04-29T05:43:14;94120.66;;;7.65;nan
9277;BME280;4676;42.678;23.244;2023-04-29T05:45:41;94116.97;;;7.76;nan
9277;BME280;4676;42.678;23.244;2023-04-29T05:48:09;94115.84;;;7.85;nan
9277;BME280;4676;42.678;23.244;2023-04-29T05:50:35;94117.00;;;7.75;nan
9277;BME280;4676;42.678;23.244;2023-04-29T05:53:02;94125.06;;;7.87;nan
9277;BME280;4676;42.678;23.244;2023-04-29T05:55:30;94111.69;;;7.84;nan
9277;BME280;4676;42.678;23.244;2023-04-29T05:57:57;94128.25;;;7.92;nan
9277;BME280;4676;42.678;23.244;2023-04-29T06:00:23;94128.63;;;8.08;nan
9277;BME280;4676;42.678;23.244;2023-04-29T06:02:50;94119.03;;;8.19;nan
9277;BME280;4676;42.678;23.244;2023-04-29T06:05:17;94124.91;;;7.92;nan
9277;BME280;4676;42.678;23.244;2023-04-29T06:07:44;94117.16;;;7.98;nan
9277;BME280;4676;42.678;23.244;2023-04-29T06:10:10;94119.63;;;8.27;nan
9277;BME280;4676;42.678;23.244;2023-04-29T06:12:38;94111.16;;;8.56;nan
9277;BME280;4676;42.678;23.244;2023-04-29T06:15:07;94111.44;;;8.98;nan
9277;BME280;4676;42.678;23.244;2023-04-29T06:17:33;94115.75;;;9.21;nan
9277;BME280;4676;42.678;23.244;2023-04-29T06:20:00;94119.16;;;9.43;nan
9277;BME280;4676;42.678;23.244;2023-04-29T06:22:27;94118.72;;;9.55;nan
9277;BME280;4676;42.678;23.244;2023-04-29T06:24:54;94113.97;;;9.71;nan
9277;BME280;4676;42.678;23.244;2023-04-29T06:27:20;94127.69;;;9.40;nan
9277;BME280;4676;42.678;23.244;2023-04-29T06:29:48;94123.94;;;9.27;nan
9277;BME280;4676;42.678;23.244;2023-04-29T06:32:15;94121.38;;;9.04;nan
9277;BME280;4676;42.678;23.244;2023-04-29T06:34:42;94122.38;;;9.23;nan
9277;BME280;4676;42.678;23.244;2023-04-29T06:37:09;94126.50;;;9.26;nan
9277;BME280;4676;42.678;23.244;2023-04-29T06:39:36;94128.66;;;9.36;nan
9277;BME280;4676;42.678;23.244;2023-04-29T06:42:03;94117.63;;;9.39;nan
9277;BME280;4676;42.678;23.244;2023-04-29T06:44:30;94118.06;;;9.50;nan
9277;BME280;4676;42.678;23.244;2023-04-29T06:46:58;94112.94;;;9.75;nan
9277;BME280;4676;42.678;23.244;2023-04-29T06:49:25;94122.72;;;10.07;nan
9277;BME280;4676;42.678;23.244;2023-04-29T06:51:51;94123.13;;;10.20;nan
9277;BME280;4676;42.678;23.244;2023-04-29T06:54:18;94120.13;;;9.85;nan
9277;BME280;4676;42.678;23.244;2023-04-29T06:56:45;94118.16;;;9.93;nan
9277;BME280;4676;42.678;23.244;2023-04-29T06:59:12;94115.59;;;9.95;nan
9277;BME280;4676;42.678;23.244;2023-04-29T07:01:39;94121.09;;;10.49;nan
9277;BME280;4676;42.678;23.244;2023-04-29T07:04:07;94120.88;;;10.34;nan
9277;BME280;4676;42.678;23.244;2023-04-29T07:06:34;94115.16;;;10.50;nan
9277;BME280;4676;42.678;23.244;2023-04-29T07:09:01;94115.03;;;10.74;nan
9277;BME280;4676;42.678;23.244;2023-04-29T07:11:28;94111.38;;;10.39;nan
9277;BME280;4676;42.678;23.244;2023-04-29T07:13:54;94120.53;;;10.63;nan
9277;BME280;4676;42.678;23.244;2023-04-29T07:16:21;94109.66;;;11.01;nan
9277;BME280;4676;42.678;23.244;2023-04-29T07:18:50;94102.91;;;11.41;nan
9277;BME280;4676;42.678;23.244;2023-04-29T07:21:18;94109.56;;;11.82;nan
9277;BME280;4676;42.678;23.244;2023-04-29T07:23:45;94104.84;;;12.12;nan
9277;BME280;4676;42.678;23.244;2023-04-29T07:26:12;94110.16;;;12.43;nan
9277;BME280;4676;42.678;23.244;2023-04-29T07:28:40;94095.38;;;12.51;nan
9277;BME280;4676;42.678;23.244;2023-04-29T07:31:07;94099.66;;;12.68;nan
9277;BME280;4676;42.678;23.244;2023-04-29T07:33:35;94104.09;;;13.16;nan
9277;BME280;4676;42.678;23.244;2023-04-29T07:36:02;94098.25;;;13.31;nan
9277;BME280;4676;42.678;23.244;2023-04-29T07:38:30;94098.91;;;13.35;nan
9277;BME280;4676;42.678;23.244;2023-04-29T07:40:57;94101.63;;;12.80;nan
9277;BME280;4676;42.678;23.244;2023-04-29T07:43:23;94102.66;;;12.76;nan
9277;BME280;4676;42.678;23.244;2023-04-29T07:45:50;94104.69;;;12.87;nan
9277;BME280;4676;42.678;23.244;2023-04-29T07:48:17;94095.97;;;12.74;nan
9277;BME280;4676;42.678;23.244;2023-04-29T07:50:45;94099.13;;;12.96;nan
9277;BME280;4676;42.678;23.244;2023-04-29T07:53:12;94091.81;;;13.07;nan
9277;BME280;4676;42.678;23.244;2023-04-29T07:55:41;94088.38;;;12.91;nan
9277;BME280;4676;42.678;23.244;2023-04-29T07:58:08;94079.00;;;13.09;nan
9277;BME280;4676;42.678;23.244;2023-04-29T08:00:35;94081.75;;;13.38;nan
9277;BME280;4676;42.678;23.244;2023-04-29T08:03:02;94075.28;;;13.48;nan
9277;BME280;4676;42.678;23.244;2023-04-29T08:05:28;94081.66;;;13.57;nan
9277;BME280;4676;42.678;23.244;2023-04-29T08:07:55;94080.53;;;13.45;nan
9277;BME280;4676;42.678;23.244;2023-04-29T08:10:22;94079.03;;;13.74;nan
9277;BME280;4676;42.678;23.244;2023-04-29T08:12:50;94083.13;;;13.77;nan
9277;BME280;4676;42.678;23.244;2023-04-29T08:15:17;94086.34;;;13.80;nan
9277;BME280;4676;42.678;23.244;2023-04-29T08:17:44;94080.44;;;13.95;nan
9277;BME280;4676;42.678;23.244;2023-04-29T08:20:11;94081.59;;;14.06;nan
9277;BME280;4676;42.678;23.244;2023-04-29T08:22:39;94077.41;;;14.20;nan
9277;BME280;4676;42.678;23.244;2023-04-29T08:25:07;94080.38;;;14.44;nan
9277;BME280;4676;42.678;23.244;2023-04-29T08:27:34;94080.06;;;14.34;nan
9277;BME280;4676;42.678;23.244;2023-04-29T08:30:03;94072.00;;;14.42;nan
9277;BME280;4676;42.678;23.244;2023-04-29T08:32:30;94074.50;;;14.58;nan
9277;BME280;4676;42.678;23.244;2023-04-29T08:34:56;94074.03;;;14.51;nan
9277;BME280;4676;42.678;23.244;2023-04-29T08:37:23;94078.25;;;14.36;nan
9277;BME280;4676;42.678;23.244;2023-04-29T08:39:50;94068.69;;;14.56;nan
9277;BME280;4676;42.678;23.244;2023-04-29T08:42:20;94071.31;;;14.54;nan
9277;BME280;4676;42.678;23.244;2023-04-29T08:44:57;94069.34;;;14.59;nan
9277;BME280;4676;42.678;23.244;2023-04-29T08:47:28;94064.66;;;14.52;nan
9277;BME280;4676;42.678;23.244;2023-04-29T08:49:57;94064.66;;;14.52;nan
9277;BME280;4676;42.678;23.244;2023-04-29T08:52:25;94062.41;;;14.61;nan
9277;BME280;4676;42.678;23.244;2023-04-29T08:54:51;94055.16;;;14.69;nan
9277;BME280;4676;42.678;23.244;2023-04-29T08:59:46;94017.31;;;14.00;nan
9277;BME280;4676;42.678;23.244;2023-04-29T09:02:15;94071.84;;;14.14;nan
9277;BME280;4676;42.678;23.244;2023-04-29T09:04:46;94066.97;;;14.25;nan
9277;BME280;4676;42.678;23.244;2023-04-29T09:07:14;94048.94;;;14.59;nan
9277;BME280;4676;42.678;23.244;2023-04-29T09:09:42;94049.88;;;15.02;nan
9277;BME280;4676;42.678;23.244;2023-04-29T09:12:09;94049.44;;;15.38;nan
9277;BME280;4676;42.678;23.244;2023-04-29T09:14:35;94028.66;;;15.44;nan
9277;BME280;4676;42.678;23.244;2023-04-29T09:17:02;94049.25;;;15.69;nan
9277;BME280;4676;42.678;23.244;2023-04-29T09:19:30;94045.34;;;15.64;nan
9277;BME280;4676;42.678;23.244;2023-04-29T09:21:59;94048.97;;;15.45;nan
9277;BME280;4676;42.678;23.244;2023-04-29T09:24:26;94046.41;;;15.31;nan
9277;BME280;4676;42.678;23.244;2023-04-29T09:26:53;94041.50;;;15.28;nan
9277;BME280;4676;42.678;23.244;2023-04-29T09:29:20;94042.09;;;14.89;nan
9277;BME280;4676;42.678;23.244;2023-04-29T09:34:32;94023.28;;;14.76;nan
9277;BME280;4676;42.678;23.244;2023-04-29T09:37:01;94034.56;;;15.02;nan
9277;BME280;4676;42.678;23.244;2023-04-29T09:39:37;94022.56;;;14.88;nan
9277;BME280;4676;42.678;23.244;2023-04-29T09:42:04;94015.50;;;15.08;nan
9277;BME280;4676;42.678;23.244;2023-04-29T09:44:33;94020.63;;;15.22;nan
9277;BME280;4676;42.678;23.244;2023-04-29T09:47:01;94020.53;;;15.23;nan
9277;BME280;4676;42.678;23.244;2023-04-29T09:49:30;94020.44;;;15.39;nan
9277;BME280;4676;42.678;23.244;2023-04-29T09:51:59;94019.81;;;15.64;nan
9277;BME280;4676;42.678;23.244;2023-04-29T09:54:28;94017.53;;;15.59;nan
9277;BME280;4676;42.678;23.244;2023-04-29T09:56:56;94019.00;;;15.63;nan
9277;BME280;4676;42.678;23.244;2023-04-29T09:59:23;94013.44;;;15.57;nan
9277;BME280;4676;42.678;23.244;2023-04-29T10:01:51;94001.38;;;15.44;nan
9277;BME280;4676;42.678;23.244;2023-04-29T10:04:20;94001.94;;;15.64;nan
9277;BME280;4676;42.678;23.244;2023-04-29T10:06:48;94002.19;;;15.73;nan
9277;BME280;4676;42.678;23.244;2023-04-29T10:09:16;93996.34;;;15.71;nan
9277;BME280;4676;42.678;23.244;2023-04-29T10:11:45;93993.53;;;15.76;nan
9277;BME280;4676;42.678;23.244;2023-04-29T10:14:15;93998.47;;;15.65;nan
9277;BME280;4676;42.678;23.244;2023-04-29T10:16:45;93983.69;;;15.56;nan
9277;BME280;4676;42.678;23.244;2023-04-29T10:19:16;93985.31;;;15.42;nan
9277;BME280;4676;42.678;23.244;2023-04-29T10:21:47;93985.44;;;15.13;nan
9277;BME280;4676;42.678;23.244;2023-04-29T10:24:16;93984.88;;;15.22;nan
9277;BME280;4676;42.678;23.244;2023-04-29T10:26:45;93976.50;;;15.34;nan
9277;BME280;4676;42.678;23.244;2023-04-29T10:29:13;93984.31;;;15.31;nan
9277;BME280;4676;42.678;23.244;2023-04-29T10:31:42;93985.59;;;15.38;nan
9277;BME280;4676;42.678;23.244;2023-04-29T10:34:10;93977.16;;;15.52;nan
9277;BME280;4676;42.678;23.244;2023-04-29T10:36:38;93977.84;;;15.39;nan
9277;BME280;4676;42.678;23.244;2023-04-29T10:39:11;93982.97;;;15.54;nan
9277;BME280;4676;42.678;23.244;2023-04-29T10:41:44;93988.34;;;15.63;nan
9277;BME280;4676;42.678;23.244;2023-04-29T10:44:12;93979.22;;;15.59;nan
9277;BME280;4676;42.678;23.244;2023-04-29T10:46:39;93978.09;;;15.77;nan
9277;BME280;4676;42.678;23.244;2023-04-29T10:49:06;93979.50;;;15.95;nan
9277;BME280;4676;42.678;23.244;2023-04-29T10:51:34;93967.47;;;15.83;nan
9277;BME280;4676;42.678;23.244;2023-04-29T10:54:02;93970.19;;;15.94;nan
9277;BME280;4676;42.678;23.244;2023-04-29T10:56:36;93972.81;;;16.07;nan
9277;BME280;4676;42.678;23.244;2023-04-29T10:59:05;93950.78;;;16.31;nan
9277;BME280;4676;42.678;23.244;2023-04-29T11:01:50;93966.03;;;16.60;nan
9277;BME280;4676;42.678;23.244;2023-04-29T11:04:18;93969.19;;;16.63;nan
9277;BME280;4676;42.678;23.244;2023-04-29T11:06:47;93977.41;;;16.41;nan
9277;BME280;4676;42.678;23.244;2023-04-29T11:09:20;93950.09;;;16.03;nan
9277;BME280;4676;42.678;23.244;2023-04-29T11:11:59;93971.03;;;15.81;nan
9277;BME280;4676;42.678;23.244;2023-04-29T11:14:33;93968.31;;;15.70;nan
9277;BME280;4676;42.678;23.244;2023-04-29T11:17:02;93964.56;;;15.89;nan
9277;BME280;4676;42.678;23.244;2023-04-29T11:19:31;93968.53;;;16.08;nan
9277;BME280;4676;42.678;23.244;2023-04-29T11:22:10;93966.53;;;15.98;nan
9277;BME280;4676;42.678;23.244;2023-04-29T11:24:48;93966.44;;;16.00;nan
9277;BME280;4676;42.678;23.244;2023-04-29T11:27:16;93970.00;;;15.97;nan
9277;BME280;4676;42.678;23.244;2023-04-29T11:29:45;93964.38;;;15.92;nan
9277;BME280;4676;42.678;23.244;2023-04-29T11:32:12;93964.59;;;16.02;nan
9277;BME280;4676;42.678;23.244;2023-04-29T11:34:39;93957.66;;;16.04;nan
9277;BME280;4676;42.678;23.244;2023-04-29T11:37:05;93965.34;;;16.04;nan
9277;BME280;4676;42.678;23.244;2023-04-29T11:39:33;93941.56;;;15.89;nan
9277;BME280;4676;42.678;23.244;2023-04-29T11:42:04;93921.66;;;15.80;nan
9277;BME280;4676;42.678;23.244;2023-04-29T11:44:33;93951.19;;;15.98;nan
9277;BME280;4676;42.678;23.244;2023-04-29T11:47:05;93963.72;;;15.89;nan
9277;BME280;4676;42.678;23.244;2023-04-29T11:49:32;93951.63;;;15.78;nan
9277;BME280;4676;42.678;23.244;2023-04-29T11:51:59;93957.72;;;15.90;nan
9277;BME280;4676;42.678;23.244;2023-04-29T11:54:27;93956.88;;;15.89;nan
9277;BME280;4676;42.678;23.244;2023-04-29T11:56:55;93949.59;;;15.83;nan
9277;BME280;4676;42.678;23.244;2023-04-29T11:59:21;93944.31;;;15.86;nan
9277;BME280;4676;42.678;23.244;2023-04-29T12:01:49;93901.28;;;15.66;nan
9277;BME280;4676;42.678;23.244;2023-04-29T12:04:17;93949.59;;;16.10;nan
9277;BME280;4676;42.678;23.244;2023-04-29T12:06:44;93921.66;;;15.80;nan
9277;BME280;4676;42.678;23.244;2023-04-29T12:09:11;93942.91;;;15.95;nan
9277;BME280;4676;42.678;23.244;2023-04-29T12:11:40;93948.16;;;16.06;nan
9277;BME280;4676;42.678;23.244;2023-04-29T12:14:07;93942.75;;;16.11;nan
9277;BME280;4676;42.678;23.244;2023-04-29T12:16:34;93938.41;;;15.98;nan
9277;BME280;4676;42.678;23.244;2023-04-29T12:19:01;93945.25;;;15.98;nan
9277;BME280;4676;42.678;23.244;2023-04-29T12:21:29;93940.44;;;15.93;nan
9277;BME280;4676;42.678;23.244;2023-04-29T12:23:58;93941.84;;;15.85;nan
9277;BME280;4676;42.678;23.244;2023-04-29T12:26:27;93929.59;;;15.90;nan
9277;BME280;4676;42.678;23.244;2023-04-29T12:28:56;93935.13;;;15.96;nan
9277;BME280;4676;42.678;23.244;2023-04-29T12:31:23;93925.53;;;16.00;nan
9277;BME280;4676;42.678;23.244;2023-04-29T12:33:53;93934.34;;;16.09;nan
9277;BME280;4676;42.678;23.244;2023-04-29T12:36:22;93913.25;;;15.92;nan
9277;BME280;4676;42.678;23.244;2023-04-29T12:38:51;93930.47;;;16.03;nan
9277;BME280;4676;42.678;23.244;2023-04-29T12:41:18;93919.53;;;15.87;nan
9277;BME280;4676;42.678;23.244;2023-04-29T12:43:49;93925.13;;;15.93;nan
9277;BME280;4676;42.678;23.244;2023-04-29T12:46:15;93924.09;;;15.96;nan
9277;BME280;4676;42.678;23.244;2023-04-29T12:48:43;93918.69;;;16.01;nan
9277;BME280;4676;42.678;23.244;2023-04-29T12:51:10;93924.13;;;16.09;nan
9277;BME280;4676;42.678;23.244;2023-04-29T12:53:37;93924.72;;;15.99;nan
9277;BME280;4676;42.678;23.244;2023-04-29T12:56:06;93919.69;;;15.98;nan
9277;BME280;4676;42.678;23.244;2023-04-29T12:58:33;93922.09;;;16.14;nan
9277;BME280;4676;42.678;23.244;2023-04-29T13:01:00;93919.34;;;16.29;nan
9277;BME280;4676;42.678;23.244;2023-04-29T13:03:26;93919.59;;;16.39;nan
9277;BME280;4676;42.678;23.244;2023-04-29T13:05:53;93919.72;;;16.50;nan
9277;BME280;4676;42.678;23.244;2023-04-29T13:08:20;93915.13;;;16.55;nan
9277;BME280;4676;42.678;23.244;2023-04-29T13:10:47;93915.22;;;16.54;nan
9277;BME280;4676;42.678;23.244;2023-04-29T13:13:15;93907.63;;;16.52;nan
9277;BME280;4676;42.678;23.244;2023-04-29T13:15:42;93908.06;;;16.71;nan
9277;BME280;4676;42.678;23.244;2023-04-29T13:18:09;93918.31;;;16.96;nan
9277;BME280;4676;42.678;23.244;2023-04-29T13:20:36;93914.03;;;16.97;nan
9277;BME280;4676;42.678;23.244;2023-04-29T13:23:02;93909.28;;;17.04;nan
9277;BME280;4676;42.678;23.244;2023-04-29T13:25:29;93912.16;;;17.12;nan
9277;BME280;4676;42.678;23.244;2023-04-29T13:27:56;93905.00;;;17.17;nan
9277;BME280;4676;42.678;23.244;2023-04-29T13:30:24;93886.03;;;17.07;nan
9277;BME280;4676;42.678;23.244;2023-04-29T13:32:51;93900.16;;;17.25;nan
9277;BME280;4676;42.678;23.244;2023-04-29T13:35:18;93885.50;;;17.27;nan
9277;BME280;4676;42.678;23.244;2023-04-29T13:37:44;93907.19;;;17.46;nan
9277;BME280;4676;42.678;23.244;2023-04-29T13:40:12;93904.09;;;17.54;nan
9277;BME280;4676;42.678;23.244;2023-04-29T13:42:39;93905.13;;;17.52;nan
9277;BME280;4676;42.678;23.244;2023-04-29T13:45:06;93902.84;;;17.72;nan
9277;BME280;4676;42.678;23.244;2023-04-29T13:47:35;93892.91;;;17.68;nan